Dunning, NE (68833)

11:59 PM CDT on April 20, 2015 (GMT -0500)
NEDOR | | Change Station
CLOSE
Current Station
Personal Weather Station
Location: Brewster, NE
Elevation: 2503 ft
Nearby Weather Stations

Elev 2503 ft 41.93 °N, 99.86 °W | Updated 31 minutes ago

Partly Cloudy
Partly Cloudy
45 °F
Feels Like 42 °F
N
5
Wind Variable Wind from West
Gusts 0.0 mph

Today
High -- | Low -- °F
--% Chance of Precip.
Yesterday
High -- | Low -- °F
Precip. -- in
6:52 AM 8:26 PM
Waxing Crescent, 8% visible
Pressure 29.89 in
Visibility 10.0 miles
Clouds Clear
Windchill 42 °F
Dew Point 27 °F
Humidity 50%
Rainfall in
Snow Depth Not available.
UV 0 out of 12
Pollen 10.00 out of 12
Air Quality Not available.
Flu Activity Local Activity
METAR KTIF 210435Z AUTO 26004KT 10SM CLR 02/M03 A2989 RMK AO2 T00201026

More Conditions Fewer Conditions

Pressure 29.89 in
Visibility 10.0 miles
Clouds Clear
Windchill 42 °F
Dew Point 27 °F
Humidity 50%
Rainfall in
Snow Depth Not available.
UV 0 out of 12
Pollen 10.00 out of 12
Air Quality Not available.
Flu Activity Local Activity
METAR KTIF 210435Z AUTO 26004KT 10SM CLR 02/M03 A2989 RMK AO2 T00201026

More Conditions Fewer Conditions

10-Day Weather Forecast

Almanac

Astronomy

Apr. 20, 2015 Rise Set
Actual Time
Civil Twilight
Nautical Twilight
Astronomical Twilight
Moon
Length of Visible Light
Length of Day
Tomorrow will be .
, % of the Moon is Illuminated

Today's Extremes

State Highs State Lows

Community

WunderPhotos

Upload Photos

1,815,313 photos uploaded!

WunderBlogs® & News

Nearby

Air Quality

  Air Quality AQ Index Pollutant
Not available.

Snow Depth

Station Depth Elevation

Earthquake Activity

City Distance Mag. Time & Date
Minimum magnitude displayed is 2.5.

Coastal Water Temperatures

Place Temperature

Stations

Nearby Weather Stations

Station Location Temp. Windchill Dew Point Humidity Wind Precip. Elev Updated Type